createdAt,value
2022-10-07T00:00:29.398Z,17.38
2022-10-07T00:03:31.854Z,17.39
2022-10-07T00:06:33.926Z,17.36
2022-10-07T00:09:35.973Z,17.34
2022-10-07T00:12:38.016Z,17.39
2022-10-07T00:15:40.078Z,17.44
2022-10-07T00:18:42.315Z,17.44
2022-10-07T00:21:44.308Z,17.39
2022-10-07T00:24:46.277Z,17.43
2022-10-07T00:27:50.385Z,17.40
2022-10-07T00:31:04.132Z,17.41
2022-10-07T00:34:07.404Z,17.35
2022-10-07T00:37:09.553Z,17.39
2022-10-07T00:40:13.619Z,17.33
2022-10-07T00:43:31.997Z,17.35
2022-10-07T00:46:38.023Z,17.36
2022-10-07T00:49:48.423Z,17.46
2022-10-07T00:53:01.222Z,17.45
2022-10-07T00:56:05.176Z,17.48
2022-10-07T00:59:08.078Z,17.51
2022-10-07T01:02:10.241Z,17.46
2022-10-07T01:05:14.382Z,17.40
2022-10-07T01:08:20.023Z,17.44
2022-10-07T01:11:46.676Z,17.51
2022-10-07T01:15:08.074Z,17.52
2022-10-07T01:18:16.075Z,17.52
2022-10-07T01:21:17.959Z,17.52
2022-10-07T01:24:22.505Z,17.55
2022-10-07T01:27:27.710Z,17.42
2022-10-07T01:30:33.602Z,17.47
2022-10-07T01:33:39.320Z,17.43
2022-10-07T01:36:43.443Z,17.47
2022-10-07T01:39:57.283Z,17.45
2022-10-07T01:42:59.832Z,17.45
2022-10-07T01:46:03.988Z,17.50
2022-10-07T01:49:07.350Z,17.55
2022-10-07T01:52:28.267Z,17.53
2022-10-07T01:55:49.601Z,17.56
2022-10-07T01:59:08.167Z,17.58
2022-10-07T02:02:19.048Z,17.51
2022-10-07T02:05:42.963Z,17.56
2022-10-07T02:08:54.334Z,17.58
2022-10-07T02:12:05.899Z,17.54
2022-10-07T02:15:22.436Z,17.51
2022-10-07T02:18:27.589Z,17.50
2022-10-07T02:21:34.518Z,17.55
2022-10-07T02:24:39.562Z,17.50
2022-10-07T02:27:47.792Z,17.55
2022-10-07T02:30:55.866Z,17.56
2022-10-07T02:34:01.265Z,17.55
2022-10-07T02:37:11.719Z,17.47
2022-10-07T02:40:14.067Z,17.43
2022-10-07T02:43:37.517Z,17.51
2022-10-07T02:46:53.999Z,17.59
2022-10-07T02:50:01.384Z,17.62
2022-10-07T02:53:06.356Z,17.56
2022-10-07T02:56:08.932Z,17.52
2022-10-07T02:59:13.040Z,17.56
2022-10-07T03:02:25.926Z,17.56
2022-10-07T03:05:29.794Z,17.52
2022-10-07T03:08:36.639Z,17.35
2022-10-07T03:11:39.778Z,17.50
2022-10-07T03:14:41.924Z,17.56
2022-10-07T03:17:44.612Z,17.57
2022-10-07T03:20:46.995Z,17.57
2022-10-07T03:23:54.087Z,17.60
2022-10-07T03:26:59.495Z,17.58
2022-10-07T03:30:02.467Z,17.64
2022-10-07T03:33:04.918Z,17.62
2022-10-07T03:36:08.465Z,17.64
2022-10-07T03:39:12.066Z,17.68
2022-10-07T03:42:14.543Z,17.64
2022-10-07T03:45:19.587Z,17.73
2022-10-07T03:48:21.991Z,17.70
2022-10-07T03:51:24.562Z,17.78
2022-10-07T03:54:26.945Z,17.93
2022-10-07T03:57:47.783Z,17.98
2022-10-07T04:00:50.723Z,18.01
2022-10-07T04:03:53.525Z,17.98
2022-10-07T04:06:55.724Z,18.05
2022-10-07T04:09:58.651Z,18.00
2022-10-07T04:13:01.265Z,17.98
2022-10-07T04:16:08.634Z,17.90
2022-10-07T04:19:11.266Z,17.89
2022-10-07T04:22:13.392Z,17.79
2022-10-07T04:25:33.780Z,17.80
2022-10-07T04:28:40.538Z,17.82
2022-10-07T04:31:46.586Z,17.90
2022-10-07T04:34:51.654Z,17.90
2022-10-07T04:37:55.049Z,17.73
2022-10-07T04:41:04.308Z,17.87
2022-10-07T04:44:06.761Z,17.84
2022-10-07T04:47:14.735Z,17.93
2022-10-07T04:50:17.512Z,17.79
2022-10-07T04:53:22.755Z,17.81
2022-10-07T04:56:28.545Z,17.78
2022-10-07T04:59:31.794Z,17.81
2022-10-07T05:02:35.300Z,17.76
2022-10-07T05:05:41.901Z,17.76
2022-10-07T05:08:44.468Z,17.89
2022-10-07T05:11:49.321Z,17.84
2022-10-07T05:14:54.699Z,17.92
2022-10-07T05:17:57.642Z,18.01
2022-10-07T05:21:05.727Z,18.02
2022-10-07T05:24:09.398Z,17.98
2022-10-07T05:27:14.415Z,18.09
2022-10-07T05:30:17.104Z,18.26
2022-10-07T05:33:20.455Z,18.13
2022-10-07T05:36:24.476Z,18.35
2022-10-07T05:39:31.068Z,18.40
2022-10-07T05:42:40.409Z,18.49
2022-10-07T05:45:43.679Z,18.67
2022-10-07T05:48:49.746Z,18.98
2022-10-07T05:51:54.338Z,18.88
2022-10-07T05:54:57.888Z,18.73
2022-10-07T05:58:01.247Z,18.85
2022-10-07T06:01:13.719Z,18.82
2022-10-07T06:04:16.601Z,18.65
2022-10-07T06:07:28.327Z,18.83
2022-10-07T06:10:52.746Z,18.90
2022-10-07T06:13:55.684Z,18.88
2022-10-07T06:16:58.648Z,18.88
2022-10-07T06:20:01.260Z,18.97
2022-10-07T06:23:05.312Z,18.99
2022-10-07T06:26:10.672Z,18.98
2022-10-07T06:29:13.360Z,19.13
2022-10-07T06:32:15.531Z,19.09
2022-10-07T06:35:19.073Z,19.51
2022-10-07T06:38:22.818Z,19.74
2022-10-07T06:41:25.407Z,19.89
2022-10-07T06:44:39.478Z,19.95
2022-10-07T06:47:44.550Z,19.95
2022-10-07T06:50:53.744Z,20.01
2022-10-07T06:54:00.823Z,20.07
2022-10-07T06:57:15.435Z,19.94
2022-10-07T07:00:25.624Z,20.05
2022-10-07T07:03:30.347Z,20.02
2022-10-07T07:06:41.639Z,20.11
2022-10-07T07:09:45.305Z,20.14
2022-10-07T07:12:47.792Z,20.16
2022-10-07T07:16:00.245Z,20.14
2022-10-07T07:19:08.955Z,19.98
2022-10-07T07:22:12.123Z,19.88
2022-10-07T07:25:16.429Z,19.97
2022-10-07T07:28:19.641Z,19.96
2022-10-07T07:31:21.950Z,20.11
2022-10-07T07:34:24.500Z,20.05
2022-10-07T07:37:29.680Z,20.03
2022-10-07T07:40:32.611Z,20.06
2022-10-07T07:43:34.703Z,20.08
2022-10-07T07:46:41.643Z,20.02
2022-10-07T07:49:44.138Z,20.08
2022-10-07T07:52:57.112Z,20.03
2022-10-07T07:55:59.604Z,20.13
2022-10-07T07:59:04.739Z,20.14
2022-10-07T08:02:08.327Z,20.15
2022-10-07T08:05:13.381Z,20.28
2022-10-07T08:08:17.287Z,20.25
2022-10-07T08:11:20.793Z,20.33
2022-10-07T08:14:24.234Z,20.32
2022-10-07T08:17:29.786Z,20.26
2022-10-07T08:20:32.906Z,20.32
2022-10-07T08:23:36.532Z,20.33
2022-10-07T08:26:38.957Z,20.34
2022-10-07T08:29:43.820Z,20.45
2022-10-07T08:32:46.239Z,20.43
2022-10-07T08:36:07.742Z,20.62
2022-10-07T08:39:10.871Z,20.70
2022-10-07T08:42:23.767Z,20.78
2022-10-07T08:45:31.974Z,20.88
2022-10-07T08:48:39.028Z,20.92
2022-10-07T08:52:10.676Z,21.00
2022-10-07T08:55:28.286Z,21.06
2022-10-07T08:58:33.257Z,21.23
2022-10-07T09:01:35.418Z,21.31
2022-10-07T09:05:11.574Z,21.32
2022-10-07T09:08:27.993Z,21.44
2022-10-07T09:11:32.975Z,21.43
2022-10-07T09:14:39.391Z,21.51
2022-10-07T09:17:52.680Z,21.55
2022-10-07T09:20:56.603Z,22.16
2022-10-07T09:24:15.360Z,22.36
2022-10-07T09:27:23.425Z,22.41
2022-10-07T09:30:28.847Z,22.36
2022-10-07T09:33:31.816Z,22.45
2022-10-07T09:36:54.639Z,22.38
2022-10-07T09:40:21.382Z,22.48
2022-10-07T09:43:26.516Z,22.42
2022-10-07T09:46:41.409Z,22.32
2022-10-07T09:49:49.040Z,22.26
2022-10-07T09:52:56.069Z,22.18
2022-10-07T09:55:59.104Z,22.10
2022-10-07T09:59:24.336Z,22.02
2022-10-07T10:02:27.352Z,21.86
2022-10-07T10:05:32.830Z,21.77
2022-10-07T10:08:41.187Z,21.70
2022-10-07T10:11:43.403Z,21.66
2022-10-07T10:14:50.584Z,21.64
2022-10-07T10:17:54.954Z,21.41
2022-10-07T10:21:14.061Z,21.57
2022-10-07T10:24:16.463Z,21.58
2022-10-07T10:27:26.677Z,21.54
2022-10-07T10:30:30.435Z,21.55
2022-10-07T10:34:17.145Z,21.57
2022-10-07T10:37:38.396Z,21.43
2022-10-07T10:40:48.331Z,21.47
2022-10-07T10:44:20.797Z,21.26
2022-10-07T10:47:38.270Z,21.26
2022-10-07T10:50:42.871Z,21.25
2022-10-07T10:54:13.149Z,21.28
2022-10-07T10:57:24.907Z,21.23
2022-10-07T11:00:35.115Z,21.24
2022-10-07T11:03:37.495Z,21.31
2022-10-07T11:06:44.670Z,21.25
2022-10-07T11:09:56.734Z,21.23
2022-10-07T11:13:12.068Z,21.27
2022-10-07T11:16:19.597Z,21.29
2022-10-07T11:19:36.277Z,21.29
2022-10-07T11:22:43.721Z,21.18
2022-10-07T11:25:54.163Z,21.28
2022-10-07T11:29:00.111Z,21.19
2022-10-07T11:32:11.075Z,21.18
2022-10-07T11:35:25.947Z,21.22
2022-10-07T11:38:41.768Z,21.21
2022-10-07T11:41:54.220Z,21.18
2022-10-07T11:45:07.402Z,21.14
2022-10-07T11:48:17.691Z,21.08
2022-10-07T11:51:25.393Z,21.03
2022-10-07T11:54:32.252Z,20.96
2022-10-07T11:57:37.615Z,21.00
2022-10-07T12:00:40.573Z,21.00
2022-10-07T12:03:42.556Z,21.07
2022-10-07T12:07:23.306Z,21.05
2022-10-07T12:10:32.624Z,21.02
2022-10-07T12:13:41.788Z,21.04
2022-10-07T12:16:55.401Z,21.00
2022-10-07T12:20:35.766Z,21.09
2022-10-07T12:23:41.081Z,21.04
2022-10-07T12:26:56.806Z,21.09
2022-10-07T12:30:02.924Z,21.10
2022-10-07T12:33:26.047Z,21.08
2022-10-07T12:36:28.846Z,21.00
2022-10-07T12:39:37.021Z,21.03
2022-10-07T12:42:48.383Z,21.02
2022-10-07T12:45:51.762Z,20.96
2022-10-07T12:49:31.131Z,20.97
2022-10-07T12:52:33.662Z,20.94
2022-10-07T12:55:39.338Z,20.91
2022-10-07T12:59:14.241Z,20.83
2022-10-07T13:02:16.471Z,20.87
2022-10-07T13:05:51.093Z,20.86
2022-10-07T13:08:56.039Z,20.84
2022-10-07T13:12:13.404Z,20.76
2022-10-07T13:15:34.806Z,20.79
2022-10-07T13:18:55.498Z,20.73
2022-10-07T13:22:10.320Z,20.76
2022-10-07T13:25:14.332Z,20.70
2022-10-07T13:28:20.261Z,20.78
2022-10-07T13:31:24.257Z,20.83
2022-10-07T13:34:28.359Z,20.93
2022-10-07T13:37:37.978Z,21.20
2022-10-07T13:40:40.160Z,21.34
2022-10-07T13:43:44.654Z,21.53
2022-10-07T13:46:58.611Z,21.68
2022-10-07T13:50:02.557Z,21.87
2022-10-07T13:53:04.598Z,22.05
2022-10-07T13:56:06.692Z,22.50
2022-10-07T13:59:19.397Z,22.60
2022-10-07T14:02:21.895Z,22.57
2022-10-07T14:05:28.838Z,22.50
2022-10-07T14:08:31.586Z,22.40
2022-10-07T14:11:35.506Z,22.39
2022-10-07T14:14:46.015Z,22.37
2022-10-07T14:17:54.078Z,22.26
2022-10-07T14:24:20.838Z,21.96
2022-10-07T14:27:39.669Z,21.94
2022-10-07T14:31:01.770Z,22.04
2022-10-07T14:34:35.235Z,22.16
2022-10-07T14:37:37.340Z,22.18
2022-10-07T14:40:39.850Z,22.31
2022-10-07T14:43:45.128Z,22.29
2022-10-07T14:46:47.553Z,22.33
2022-10-07T14:49:53.989Z,22.29
2022-10-07T14:52:56.024Z,22.19
2022-10-07T14:55:59.810Z,22.33
2022-10-07T14:59:03.043Z,22.17
2022-10-07T15:02:05.229Z,22.19
2022-10-07T15:05:08.044Z,22.14
2022-10-07T15:08:13.466Z,22.00
2022-10-07T15:11:20.612Z,22.12
2022-10-07T15:14:22.595Z,22.07
2022-10-07T15:17:25.657Z,21.86
2022-10-07T15:20:30.296Z,21.83
2022-10-07T15:23:32.378Z,21.84
2022-10-07T15:26:34.329Z,21.70
2022-10-07T15:29:37.976Z,21.76
2022-10-07T15:32:41.189Z,21.63
2022-10-07T15:35:48.330Z,21.59
2022-10-07T15:38:51.576Z,21.64
2022-10-07T15:41:54.230Z,21.44
2022-10-07T15:44:57.079Z,21.49
2022-10-07T15:48:00.658Z,21.50
2022-10-07T15:51:05.031Z,21.19
2022-10-07T15:54:07.727Z,21.33
2022-10-07T15:57:10.478Z,21.26
2022-10-07T16:00:15.759Z,21.08
2022-10-07T16:03:17.916Z,21.14
2022-10-07T16:06:25.722Z,21.16
2022-10-07T16:09:27.993Z,21.04
2022-10-07T16:12:30.179Z,20.98
2022-10-07T16:18:54.998Z,20.89
2022-10-07T16:21:57.167Z,20.96
2022-10-07T16:24:59.657Z,20.94
2022-10-07T16:28:20.524Z,20.94
2022-10-07T16:31:22.700Z,20.94
2022-10-07T16:34:25.197Z,20.89
2022-10-07T16:37:28.331Z,20.92
2022-10-07T16:40:30.428Z,20.90
2022-10-07T16:43:34.867Z,20.84
2022-10-07T16:46:39.316Z,21.00
2022-10-07T16:49:43.841Z,20.87
2022-10-07T16:52:48.062Z,20.92
2022-10-07T16:55:50.426Z,20.99
2022-10-07T16:58:58.142Z,20.88
2022-10-07T17:02:03.339Z,20.81
2022-10-07T17:05:06.059Z,20.80
2022-10-07T17:08:08.389Z,20.75
2022-10-07T17:11:31.790Z,20.67
2022-10-07T17:14:34.021Z,20.60
2022-10-07T17:17:36.284Z,20.55
2022-10-07T17:20:40.462Z,20.62
2022-10-07T17:23:42.885Z,20.35
2022-10-07T17:26:46.200Z,20.34
2022-10-07T17:29:48.742Z,20.43
2022-10-07T17:32:54.481Z,20.33
2022-10-07T17:36:07.722Z,20.42
2022-10-07T17:39:11.532Z,20.25
2022-10-07T17:42:16.240Z,20.39
2022-10-07T17:45:18.360Z,20.30
2022-10-07T17:48:21.106Z,20.24
2022-10-07T17:51:28.005Z,20.33
2022-10-07T17:54:30.289Z,20.22
2022-10-07T17:57:33.296Z,20.22
2022-10-07T18:00:35.549Z,20.16
2022-10-07T18:06:56.440Z,20.01
2022-10-07T18:09:58.634Z,20.10
2022-10-07T18:13:19.414Z,20.11
2022-10-07T18:16:22.467Z,20.11
2022-10-07T18:19:31.180Z,19.83
2022-10-07T18:22:35.204Z,19.95
2022-10-07T18:25:38.775Z,19.91
2022-10-07T18:28:41.930Z,19.79
2022-10-07T18:31:46.435Z,19.91
2022-10-07T18:34:51.916Z,19.69
2022-10-07T18:37:54.075Z,19.81
2022-10-07T18:41:00.344Z,19.80
2022-10-07T18:44:02.539Z,19.57
2022-10-07T18:47:05.238Z,19.65
2022-10-07T18:50:07.921Z,19.45
2022-10-07T18:53:10.281Z,19.38
2022-10-07T18:56:20.932Z,19.38
2022-10-07T18:59:23.195Z,19.30
2022-10-07T19:02:25.449Z,19.17
2022-10-07T19:05:33.622Z,19.32
2022-10-07T19:08:37.124Z,19.18
2022-10-07T19:11:42.730Z,19.16
2022-10-07T19:14:44.875Z,19.06
2022-10-07T19:17:48.608Z,18.97
2022-10-07T19:20:58.478Z,19.12
2022-10-07T19:24:03.766Z,18.93
2022-10-07T19:27:08.091Z,19.11
2022-10-07T19:30:11.313Z,19.05
2022-10-07T19:33:13.612Z,19.02
2022-10-07T19:36:19.743Z,18.96
2022-10-07T19:39:23.125Z,19.01
2022-10-07T19:42:27.323Z,19.01
2022-10-07T19:45:29.596Z,19.04
2022-10-07T19:48:33.719Z,19.06
2022-10-07T19:51:39.745Z,19.10
2022-10-07T19:54:45.430Z,18.92
2022-10-07T19:57:48.282Z,19.02
2022-10-07T20:00:50.895Z,18.89
2022-10-07T20:03:59.227Z,18.77
2022-10-07T20:07:02.212Z,18.88
2022-10-07T20:10:04.583Z,18.76
2022-10-07T20:13:07.405Z,18.71
2022-10-07T20:16:17.424Z,18.79
2022-10-07T20:19:19.772Z,18.67
2022-10-07T20:22:22.169Z,18.62
2022-10-07T20:25:24.627Z,18.67
2022-10-07T20:28:27.550Z,18.69
2022-10-07T20:31:33.011Z,18.70
2022-10-07T20:34:37.980Z,18.59
2022-10-07T20:37:40.303Z,18.64
2022-10-07T20:41:01.062Z,18.42
2022-10-07T20:44:04.301Z,18.58
2022-10-07T20:47:08.900Z,18.45
2022-10-07T20:50:11.153Z,18.39
2022-10-07T20:53:14.049Z,18.44
2022-10-07T20:56:17.028Z,18.43
2022-10-07T20:59:19.316Z,18.47
2022-10-07T21:02:25.003Z,18.38
2022-10-07T21:05:29.684Z,18.38
2022-10-07T21:08:31.963Z,18.43
2022-10-07T21:11:34.939Z,18.27
2022-10-07T21:14:37.596Z,18.38
2022-10-07T21:17:40.969Z,18.24
2022-10-07T21:20:56.718Z,18.27
2022-10-07T21:24:00.789Z,18.23
2022-10-07T21:27:05.156Z,18.17
2022-10-07T21:30:11.626Z,18.31
2022-10-07T21:33:13.790Z,18.27
2022-10-07T21:36:18.729Z,18.12
2022-10-07T21:39:23.872Z,18.22
2022-10-07T21:42:26.579Z,18.09
2022-10-07T21:45:28.835Z,17.95
2022-10-07T21:48:31.839Z,18.02
2022-10-07T21:51:36.795Z,17.94
2022-10-07T21:54:40.229Z,17.79
2022-10-07T21:57:42.960Z,17.93
2022-10-07T22:00:45.044Z,17.79
2022-10-07T22:03:48.539Z,17.90
2022-10-07T22:07:09.261Z,17.72
2022-10-07T22:10:11.495Z,17.65
2022-10-07T22:13:14.620Z,17.71
2022-10-07T22:16:18.508Z,17.83
2022-10-07T22:19:20.969Z,17.71
2022-10-07T22:22:24.015Z,17.71
2022-10-07T22:25:26.102Z,17.78
2022-10-07T22:28:28.426Z,17.73
2022-10-07T22:31:32.342Z,17.73
2022-10-07T22:34:53.411Z,17.51
2022-10-07T22:37:57.498Z,17.60
2022-10-07T22:41:08.232Z,17.59
2022-10-07T22:44:11.557Z,17.65
2022-10-07T22:47:15.191Z,17.58
2022-10-07T22:50:17.760Z,17.47
2022-10-07T22:53:21.687Z,17.57
2022-10-07T22:56:26.725Z,17.44
2022-10-07T22:59:28.802Z,17.40
2022-10-07T23:02:30.963Z,17.53
2022-10-07T23:05:39.442Z,17.50
2022-10-07T23:08:43.307Z,17.52
2022-10-07T23:11:47.104Z,17.39
2022-10-07T23:14:49.105Z,17.47
2022-10-07T23:17:51.379Z,17.51
2022-10-07T23:21:03.973Z,17.42
2022-10-07T23:24:20.458Z,17.45
2022-10-07T23:27:23.868Z,17.51
2022-10-07T23:30:27.970Z,17.42
2022-10-07T23:33:31.619Z,17.40
2022-10-07T23:36:40.610Z,17.44
2022-10-07T23:39:44.730Z,17.43
2022-10-07T23:42:46.919Z,17.33
2022-10-07T23:45:51.354Z,17.34
2022-10-07T23:48:56.023Z,17.37
2022-10-07T23:51:58.331Z,17.31
2022-10-07T23:55:00.461Z,17.34
2022-10-07T23:58:03.097Z,17.24
